Time;durP1;ratioP1;P1;durP2;ratioP2;P2;SDS_P1;SDS_P2;PMS_P1;PMS_P2;Temp;Humidity;BMP_temperature;BMP_pressure;BME280_temperature;BME280_humidity;BME280_pressure;Samples;Min_cycle;Max_cycle;Signal;HPM_P1;HPM_P2
2023/08/02 00:00:03;;;;;;;4.20;2.40;;;;;;;19.34;100.00;98863.58;105892;1251;60462;-75
2023/08/02 00:02:37;;;;;;;3.00;2.80;;;;;;;19.32;100.00;98860.73;105887;1251;60966;-74
2023/08/02 00:05:04;;;;;;;4.00;2.80;;;;;;;19.30;100.00;98856.80;105863;1251;73871;-75
2023/08/02 00:07:31;;;;;;;5.60;2.70;;;;;;;19.27;100.00;98852.39;105890;1251;71073;-74
2023/08/02 00:09:58;;;;;;;3.00;2.70;;;;;;;19.25;100.00;98845.31;105849;1251;60448;-75
2023/08/02 00:12:25;;;;;;;2.70;2.50;;;;;;;19.24;100.00;98847.54;105823;1250;60476;-75
2023/08/02 00:14:51;;;;;;;3.80;2.80;;;;;;;19.20;100.00;98844.92;105885;1251;60559;-74
2023/08/02 00:17:18;;;;;;;4.90;2.80;;;;;;;19.18;100.00;98846.73;105843;1254;60446;-75
2023/08/02 00:19:44;;;;;;;8.60;3.50;;;;;;;19.18;100.00;98848.38;105857;1250;60533;-74
2023/08/02 00:22:11;;;;;;;7.20;3.00;;;;;;;19.16;100.00;98853.32;105884;1249;72435;-74
2023/08/02 00:24:38;;;;;;;5.20;3.10;;;;;;;19.13;100.00;98849.25;105850;1250;60465;-74
2023/08/02 00:27:04;;;;;;;8.30;3.30;;;;;;;19.12;100.00;98853.96;105835;1251;60546;-74
2023/08/02 00:29:31;;;;;;;7.30;3.30;;;;;;;19.12;100.00;98851.47;105825;1254;60430;-74
2023/08/02 00:31:58;;;;;;;3.70;3.40;;;;;;;19.14;100.00;98859.89;105781;1251;70920;-74
2023/08/02 00:34:26;;;;;;;3.30;3.00;;;;;;;19.15;100.00;98857.69;105837;1254;60445;-74
2023/08/02 00:36:53;;;;;;;3.70;3.40;;;;;;;19.13;100.00;98856.36;105818;1250;60914;-73
2023/08/02 00:39:19;;;;;;;3.50;3.30;;;;;;;19.11;100.00;98856.39;105906;1250;60425;-74
2023/08/02 00:41:46;;;;;;;4.50;3.50;;;;;;;19.08;100.00;98854.65;105898;1250;73802;-74
2023/08/02 00:44:13;;;;;;;4.20;3.10;;;;;;;19.06;100.00;98861.55;105927;1254;70379;-74
2023/08/02 00:46:40;;;;;;;4.30;2.80;;;;;;;19.03;100.00;98861.85;105852;1250;71495;-74
2023/08/02 00:49:09;;;;;;;3.60;3.30;;;;;;;19.00;100.00;98859.61;105970;1254;60456;-73
2023/08/02 00:51:35;;;;;;;6.20;3.20;;;;;;;18.96;100.00;98858.44;106009;1251;60440;-74
2023/08/02 00:54:02;;;;;;;4.50;3.30;;;;;;;18.92;100.00;98853.94;105786;1250;73866;-73
2023/08/02 00:56:30;;;;;;;4.10;2.70;;;;;;;18.89;100.00;98853.84;105838;1249;70833;-74
2023/08/02 00:58:56;;;;;;;5.20;3.30;;;;;;;18.85;100.00;98853.63;105870;1254;72473;-74
2023/08/02 01:01:24;;;;;;;3.00;2.70;;;;;;;18.81;100.00;98853.44;105849;1251;60609;-74
2023/08/02 01:03:50;;;;;;;3.40;2.80;;;;;;;18.74;100.00;98852.65;105899;1250;60552;-75
2023/08/02 01:07:03;;;;;;;5.60;2.90;;;;;;;18.72;100.00;98852.52;105727;1256;72382;-75
2023/08/02 01:09:46;;;;;;;5.90;2.90;;;;;;;18.70;100.00;98853.22;105788;1250;70973;-75
2023/08/02 01:12:13;;;;;;;5.30;2.80;;;;;;;18.68;100.00;98850.55;105903;1254;71257;-75
2023/08/02 01:14:41;;;;;;;3.80;3.60;;;;;;;18.64;100.00;98847.46;105812;1253;60409;-75
2023/08/02 01:17:24;;;;;;;3.90;2.90;;;;;;;18.60;100.00;98854.15;105838;1250;60505;-75
2023/08/02 01:19:51;;;;;;;4.20;2.70;;;;;;;18.56;100.00;98852.36;105949;1254;72709;-74
2023/08/02 01:22:18;;;;;;;4.70;3.10;;;;;;;18.51;100.00;98853.03;105878;1250;70866;-75
2023/08/02 01:24:45;;;;;;;3.80;3.20;;;;;;;18.49;100.00;98851.10;105894;1250;72768;-74
2023/08/02 01:27:19;;;;;;;3.40;3.20;;;;;;;18.44;100.00;98852.52;105760;1251;60533;-74
2023/08/02 01:29:47;;;;;;;3.40;3.20;;;;;;;18.41;100.00;98858.44;105918;1254;60559;-74
2023/08/02 01:32:14;;;;;;;3.60;3.10;;;;;;;18.39;100.00;98856.84;105863;1254;73691;-74
2023/08/02 01:34:42;;;;;;;3.70;3.20;;;;;;;18.37;100.00;98854.69;105781;1250;70006;-74
2023/08/02 01:37:09;;;;;;;5.00;3.40;;;;;;;18.35;100.00;98850.95;105878;1250;72457;-74
2023/08/02 01:39:36;;;;;;;5.30;3.10;;;;;;;18.31;100.00;98848.79;105823;1250;60559;-75
2023/08/02 01:42:03;;;;;;;3.00;2.70;;;;;;;18.27;100.00;98847.34;105848;1254;60418;-75
2023/08/02 01:44:30;;;;;;;3.10;2.70;;;;;;;18.23;100.00;98838.71;105846;1254;73863;-74
2023/08/02 01:46:56;;;;;;;5.20;3.10;;;;;;;18.20;100.00;98836.14;105803;1250;70883;-75
2023/08/02 01:49:23;;;;;;;7.70;3.30;;;;;;;18.17;100.00;98839.55;105899;1250;71918;-75
2023/08/02 01:51:50;;;;;;;4.00;2.90;;;;;;;18.15;100.00;98838.23;105866;1251;60560;-75
2023/08/02 01:54:17;;;;;;;6.00;3.10;;;;;;;18.12;100.00;98842.23;105849;1254;60549;-74
2023/08/02 01:56:44;;;;;;;4.90;3.10;;;;;;;18.10;100.00;98848.08;105970;1250;73780;-73
2023/08/02 01:59:12;;;;;;;3.90;2.80;;;;;;;18.08;100.00;98852.27;105892;1250;70894;-74
2023/08/02 02:01:39;;;;;;;7.50;3.30;;;;;;;18.06;100.00;98846.77;105871;1251;71300;-75
2023/08/02 02:04:06;;;;;;;5.50;3.20;;;;;;;18.06;100.00;98844.67;105836;1251;60549;-75
2023/08/02 02:06:32;;;;;;;2.70;2.60;;;;;;;18.06;100.00;98841.42;105888;1250;60546;-75
2023/08/02 02:08:59;;;;;;;3.40;2.90;;;;;;;18.07;100.00;98846.36;105835;1250;73653;-74
2023/08/02 02:11:26;;;;;;;3.40;2.70;;;;;;;18.06;100.00;98839.52;105775;1251;70952;-75
2023/08/02 02:13:53;;;;;;;3.30;3.10;;;;;;;18.05;100.00;98835.30;105811;1256;72524;-76
2023/08/02 02:16:19;;;;;;;4.10;3.10;;;;;;;18.06;100.00;98832.60;105892;1250;61770;-76
2023/08/02 02:18:47;;;;;;;3.30;2.90;;;;;;;18.06;100.00;98836.98;105844;1255;60428;-74
2023/08/02 02:21:13;;;;;;;2.80;2.60;;;;;;;18.05;100.00;98834.08;105843;1254;74006;-74
2023/08/02 02:23:40;;;;;;;7.00;3.40;;;;;;;18.01;100.00;98835.05;105834;1250;70977;-75
2023/08/02 02:26:07;;;;;;;4.70;3.10;;;;;;;17.98;100.00;98837.77;105900;1251;71153;-74
2023/08/02 02:28:34;;;;;;;3.20;2.90;;;;;;;17.96;100.00;98836.34;103655;1254;1003599;-74
2023/08/02 02:31:02;;;;;;;3.00;2.80;;;;;;;17.93;100.00;98842.79;105909;1255;60479;-74
2023/08/02 02:33:28;;;;;;;5.10;3.20;;;;;;;17.92;100.00;98837.40;105999;1254;73835;-75
2023/08/02 02:35:55;;;;;;;3.60;3.00;;;;;;;17.88;100.00;98841.96;105909;1251;71141;-74
2023/08/02 02:38:22;;;;;;;2.90;2.50;;;;;;;17.84;100.00;98847.85;105870;1251;72655;-75
2023/08/02 02:40:48;;;;;;;3.00;2.80;;;;;;;17.81;100.00;98846.59;105848;1250;60588;-76
2023/08/02 02:43:15;;;;;;;3.30;3.10;;;;;;;17.80;100.00;98845.66;105869;1254;60445;-74
2023/08/02 02:45:42;;;;;;;3.80;3.50;;;;;;;17.77;100.00;98844.64;105102;1254;1003102;-74
2023/08/02 02:48:09;;;;;;;3.70;3.40;;;;;;;17.75;100.00;98849.25;105928;1250;70873;-74
2023/08/02 02:50:35;;;;;;;6.00;3.40;;;;;;;17.72;100.00;98853.72;105879;1250;72654;-74
2023/08/02 02:53:02;;;;;;;4.20;3.90;;;;;;;17.69;100.00;98861.06;105838;1250;61951;-74
2023/08/02 02:55:29;;;;;;;5.00;4.30;;;;;;;17.66;100.00;98873.14;105824;1250;60428;-74
2023/08/02 02:57:56;;;;;;;4.00;3.40;;;;;;;17.63;100.00;98873.02;105916;1250;71850;-74
2023/08/02 03:00:23;;;;;;;3.60;3.20;;;;;;;17.61;100.00;98874.02;105922;1250;71085;-75
2023/08/02 03:02:50;;;;;;;5.10;3.60;;;;;;;17.63;100.00;98875.14;105843;1250;72567;-74
2023/08/02 03:05:17;;;;;;;4.10;3.30;;;;;;;17.66;100.00;98872.10;105960;1250;61966;-75
2023/08/02 03:07:44;;;;;;;3.10;2.90;;;;;;;17.69;100.00;98870.30;105808;1250;60549;-75
2023/08/02 03:10:11;;;;;;;3.50;2.90;;;;;;;17.70;100.00;98871.63;105808;1250;73659;-75
2023/08/02 03:12:37;;;;;;;3.20;2.70;;;;;;;17.73;100.00;98865.73;105858;1250;71255;-74
2023/08/02 03:15:05;;;;;;;3.70;3.20;;;;;;;17.76;100.00;98862.12;105823;1250;72409;-75
2023/08/02 03:17:32;;;;;;;8.50;3.50;;;;;;;17.81;100.00;98862.81;105956;1250;61973;-74
2023/08/02 03:19:59;;;;;;;4.00;3.70;;;;;;;17.85;100.00;98865.70;105848;1254;60431;-74
2023/08/02 03:22:25;;;;;;;5.00;3.60;;;;;;;17.89;100.00;98865.84;105856;1254;72481;-75
2023/08/02 03:24:52;;;;;;;3.40;3.20;;;;;;;17.92;100.00;98867.20;105874;1255;60581;-75
2023/08/02 03:27:19;;;;;;;5.40;3.70;;;;;;;17.94;100.00;98865.73;105857;1251;72306;-75
2023/08/02 03:29:45;;;;;;;5.00;3.40;;;;;;;17.97;100.00;98865.05;105842;1250;62232;-74
2023/08/02 03:32:12;;;;;;;6.40;3.40;;;;;;;18.00;100.00;98866.24;105793;1254;60542;-74
2023/08/02 03:34:38;;;;;;;5.80;3.70;;;;;;;18.04;100.00;98864.69;105832;1254;60475;-75
2023/08/02 03:37:05;;;;;;;5.80;4.10;;;;;;;18.09;100.00;98864.67;105886;1251;60511;-74
2023/08/02 03:39:32;;;;;;;7.30;4.20;;;;;;;18.15;100.00;98865.97;105877;1250;72711;-75
2023/08/02 03:41:59;;;;;;;5.20;4.30;;;;;;;18.19;100.00;98869.36;105868;1254;61764;-74
2023/08/02 03:44:26;;;;;;;8.40;4.20;;;;;;;18.23;100.00;98870.67;105837;1254;60366;-74
2023/08/02 03:46:52;;;;;;;5.80;4.60;;;;;;;18.28;100.00;98870.52;105846;1250;73720;-74
2023/08/02 03:49:20;;;;;;;4.90;4.50;;;;;;;18.33;100.00;98875.09;105934;1250;70938;-75
2023/08/02 03:51:47;;;;;;;5.00;4.60;;;;;;;18.38;100.00;98873.98;105950;1250;72642;-74
2023/08/02 03:54:15;;;;;;;5.00;4.30;;;;;;;18.42;100.00;98875.09;105885;1250;61970;-74
2023/08/02 03:56:41;;;;;;;6.80;4.30;;;;;;;18.47;100.00;98875.02;105904;1254;60441;-75
2023/08/02 03:59:08;;;;;;;10.90;4.80;;;;;;;18.53;100.00;98877.42;105863;1254;73766;-74
2023/08/02 04:01:35;;;;;;;9.00;4.30;;;;;;;18.59;100.00;98878.71;105871;1250;71136;-74
2023/08/02 04:04:02;;;;;;;5.40;4.50;;;;;;;18.66;100.00;98881.21;105830;1250;72313;-74
2023/08/02 04:06:29;;;;;;;6.70;4.40;;;;;;;18.73;100.00;98878.73;105834;1250;60774;-75
2023/08/02 04:08:55;;;;;;;5.10;4.60;;;;;;;18.80;100.00;98876.41;105897;1250;60540;-74
2023/08/02 04:11:22;;;;;;;5.90;4.20;;;;;;;18.87;100.00;98872.31;105950;1254;73926;-75
2023/08/02 04:13:50;;;;;;;6.40;4.80;;;;;;;18.95;100.00;98868.81;105879;1254;69578;-74
2023/08/02 04:16:17;;;;;;;4.90;4.50;;;;;;;19.04;100.00;98866.34;105917;1250;72625;-74
2023/08/02 04:18:43;;;;;;;8.60;4.30;;;;;;;19.13;100.00;98863.52;105818;1251;61758;-74
2023/08/02 04:21:16;;;;;;;4.60;4.30;;;;;;;19.21;100.00;98861.64;105843;1250;60649;-75
2023/08/02 04:23:43;;;;;;;9.10;5.30;;;;;;;19.29;100.00;98860.77;105967;1254;73902;-76
2023/08/02 04:26:10;;;;;;;8.50;4.60;;;;;;;19.38;100.00;98857.91;105897;1250;71039;-75
2023/08/02 04:28:37;;;;;;;8.00;4.40;;;;;;;19.49;100.00;98849.25;105894;1250;72431;-74
2023/08/02 04:31:03;;;;;;;6.00;4.40;;;;;;;19.59;100.00;98851.06;105102;1255;1002898;-75
2023/08/02 04:33:30;;;;;;;5.80;5.30;;;;;;;19.68;100.00;98846.95;105918;1250;60384;-74
2023/08/02 04:35:59;;;;;;;8.90;4.90;;;;;;;19.78;100.00;98847.76;105886;1251;72612;-76
2023/08/02 04:38:26;;;;;;;5.30;4.70;;;;;;;19.88;100.00;98845.28;105864;1250;70937;-75
2023/08/02 04:40:53;;;;;;;4.50;4.00;;;;;;;19.97;100.00;98840.42;105904;1254;71497;-76
2023/08/02 04:43:20;;;;;;;5.50;4.30;;;;;;;20.06;100.00;98836.52;105862;1250;60451;-75
2023/08/02 04:45:46;;;;;;;4.90;4.50;;;;;;;20.14;100.00;98831.21;105847;1250;60470;-75
2023/08/02 04:48:13;;;;;;;4.90;4.40;;;;;;;20.22;100.00;98831.37;105861;1253;73834;-75
2023/08/02 04:50:40;;;;;;;4.30;3.90;;;;;;;20.31;100.00;98831.73;105889;1251;70924;-75
2023/08/02 04:53:07;;;;;;;4.60;3.80;;;;;;;20.38;100.00;98829.45;105804;1251;72451;-75
2023/08/02 04:55:43;;;;;;;4.80;4.30;;;;;;;20.46;100.00;98828.30;105835;1250;60625;-74
2023/08/02 04:58:10;;;;;;;9.10;4.40;;;;;;;20.52;100.00;98825.80;105766;1250;60534;-76
2023/08/02 05:00:37;;;;;;;8.10;4.40;;;;;;;20.58;100.00;98818.47;105966;1254;73961;-75
2023/08/02 05:03:04;;;;;;;4.40;4.10;;;;;;;20.66;100.00;98814.65;105911;1254;69754;-75
2023/08/02 05:05:31;;;;;;;7.50;4.10;;;;;;;20.72;100.00;98806.82;106019;1250;72706;-76
2023/08/02 05:07:58;;;;;;;6.80;4.30;;;;;;;20.79;100.00;98808.51;105954;1250;60907;-76
2023/08/02 05:10:25;;;;;;;4.30;3.90;;;;;;;20.86;100.00;98810.94;105873;1254;60448;-76
2023/08/02 05:12:52;;;;;;;6.70;4.00;;;;;;;20.93;100.00;98807.45;105893;1251;72428;-76
2023/08/02 05:15:18;;;;;;;7.40;4.30;;;;;;;21.00;100.00;98809.47;105827;1251;69709;-74
2023/08/02 05:17:45;;;;;;;7.10;4.40;;;;;;;21.10;100.00;98813.60;105885;1250;72474;-77
2023/08/02 05:20:12;;;;;;;5.40;4.10;;;;;;;21.20;100.00;98819.89;105873;1250;60562;-76
2023/08/02 05:22:39;;;;;;;5.20;4.10;;;;;;;21.28;100.00;98815.72;105903;1251;60602;-76
2023/08/02 05:25:06;;;;;;;4.50;4.10;;;;;;;21.37;100.00;98819.70;105871;1254;73604;-75
2023/08/02 05:27:33;;;;;;;10.20;4.40;;;;;;;21.45;100.00;98811.74;105888;1250;71082;-74
2023/08/02 05:30:00;;;;;;;18.20;4.00;;;;;;;21.50;100.00;98801.97;105871;1256;71174;-75
2023/08/02 05:32:26;;;;;;;5.80;4.10;;;;;;;21.56;100.00;98804.00;105960;1254;60469;-76
2023/08/02 05:34:53;;;;;;;8.30;4.50;;;;;;;21.62;100.00;98805.40;105861;1250;60451;-77
2023/08/02 05:37:20;;;;;;;5.60;3.70;;;;;;;21.69;100.00;98804.23;105862;1252;72360;-76
2023/08/02 05:39:47;;;;;;;3.80;3.50;;;;;;;21.76;100.00;98805.11;105954;1250;70981;-75
2023/08/02 05:42:13;;;;;;;4.30;4.00;;;;;;;21.83;100.00;98798.04;105851;1250;60451;-76
2023/08/02 05:44:40;;;;;;;11.00;4.60;;;;;;;21.91;100.00;98796.08;105873;1254;60437;-75
2023/08/02 05:47:06;;;;;;;5.80;3.70;;;;;;;21.98;100.00;98790.08;105859;1251;60633;-76
2023/08/02 05:49:33;;;;;;;4.00;3.70;;;;;;;22.06;100.00;98784.39;105997;1250;73887;-75
2023/08/02 05:52:00;;;;;;;4.30;3.50;;;;;;;22.12;100.00;98782.88;105868;1250;70958;-75
2023/08/02 05:54:27;;;;;;;3.80;3.50;;;;;;;22.17;100.00;98779.02;105824;1250;72423;-76
2023/08/02 05:56:53;;;;;;;5.90;3.60;;;;;;;22.23;100.00;98781.65;105824;1254;61021;-75
2023/08/02 05:59:20;;;;;;;4.20;3.70;;;;;;;22.30;100.00;98774.24;105842;1255;60479;-75
2023/08/02 06:01:47;;;;;;;6.70;4.10;;;;;;;22.37;100.00;98772.14;105838;1251;73553;-75
2023/08/02 06:04:13;;;;;;;10.10;3.40;;;;;;;22.47;100.00;98773.73;105918;1254;70949;-76
2023/08/02 06:06:40;;;;;;;5.20;3.40;;;;;;;22.54;100.00;98768.58;105925;1250;72472;-75
2023/08/02 06:09:07;;;;;;;4.20;3.70;;;;;;;22.61;100.00;98764.08;105903;1250;60541;-76
2023/08/02 06:11:36;;;;;;;4.40;3.50;;;;;;;22.70;100.00;98760.26;105963;1250;60458;-76
2023/08/02 06:14:03;;;;;;;3.70;3.40;;;;;;;22.78;100.00;98755.72;105858;1254;73710;-74
2023/08/02 06:16:30;;;;;;;9.00;4.60;;;;;;;22.86;100.00;98756.96;105973;1250;71103;-77
2023/08/02 06:18:57;;;;;;;6.50;3.60;;;;;;;22.91;100.00;98758.70;105965;1251;72658;-75
2023/08/02 06:21:23;;;;;;;3.60;3.30;;;;;;;22.96;100.00;98759.30;105801;1250;60533;-75
2023/08/02 06:23:50;;;;;;;4.50;3.60;;;;;;;23.01;100.00;98761.31;105859;1250;60556;-75
2023/08/02 06:26:18;;;;;;;5.50;3.70;;;;;;;23.08;100.00;98762.66;105887;1255;73787;-75
2023/08/02 06:28:44;;;;;;;3.80;3.60;;;;;;;23.15;100.00;98760.16;105815;1250;71130;-75
2023/08/02 06:31:11;;;;;;;5.00;3.90;;;;;;;23.23;100.00;98761.16;105878;1251;72672;-75
2023/08/02 06:33:38;;;;;;;5.20;3.80;;;;;;;23.31;100.00;98756.98;105929;1251;61970;-74
2023/08/02 06:36:05;;;;;;;5.10;4.00;;;;;;;23.40;100.00;98750.52;105855;1251;60492;-75
2023/08/02 06:38:32;;;;;;;4.20;4.00;;;;;;;23.48;100.00;98748.65;105937;1251;72824;-75
2023/08/02 06:40:59;;;;;;;4.00;3.60;;;;;;;23.55;100.00;98745.59;105963;1250;71171;-75
2023/08/02 06:43:26;;;;;;;4.20;3.80;;;;;;;23.62;100.00;98743.90;105919;1250;72483;-75
2023/08/02 06:45:52;;;;;;;6.50;3.70;;;;;;;23.67;100.00;98742.80;105864;1255;60530;-75
2023/08/02 06:48:23;;;;;;;4.10;3.40;;;;;;;23.74;100.00;98736.35;105846;1254;60497;-75
2023/08/02 06:50:51;;;;;;;3.80;3.40;;;;;;;23.84;100.00;98737.04;105885;1254;72342;-76
2023/08/02 06:53:17;;;;;;;11.10;3.60;;;;;;;23.92;100.00;98741.90;106054;1251;69769;-76
2023/08/02 06:55:44;;;;;;;10.80;3.70;;;;;;;24.02;100.00;98744.13;105880;1250;72441;-76
2023/08/02 06:58:11;;;;;;;6.70;3.50;;;;;;;24.11;100.00;98738.70;105944;1251;60874;-76
2023/08/02 07:00:39;;;;;;;3.90;3.20;;;;;;;24.20;100.00;98731.50;105913;1250;60546;-76
2023/08/02 07:03:06;;;;;;;4.30;3.00;;;;;;;24.28;100.00;98729.39;106008;1256;73746;-77
2023/08/02 07:05:34;;;;;;;3.30;3.00;;;;;;;24.37;100.00;98731.01;105874;1254;70248;-76
2023/08/02 07:08:02;;;;;;;3.80;2.70;;;;;;;24.45;100.00;98727.80;105995;1251;72533;-76
2023/08/02 07:10:29;;;;;;;3.10;2.80;;;;;;;24.52;100.00;98725.30;105970;1250;60523;-74
2023/08/02 07:12:56;;;;;;;6.40;2.60;;;;;;;24.58;100.00;98720.37;105904;1250;60530;-75
2023/08/02 07:15:23;;;;;;;3.20;2.80;;;;;;;24.63;100.00;98717.55;105938;1255;73649;-76
2023/08/02 07:17:50;;;;;;;3.60;3.30;;;;;;;24.69;100.00;98719.75;105903;1251;60475;-76
2023/08/02 07:20:20;;;;;;;6.10;3.40;;;;;;;24.74;100.00;98723.54;105917;1249;71283;-75
2023/08/02 07:22:47;;;;;;;4.30;3.50;;;;;;;24.78;100.00;98721.85;105872;1250;60527;-75
2023/08/02 07:25:13;;;;;;;12.80;3.70;;;;;;;24.81;100.00;98726.54;105890;1250;60438;-76
2023/08/02 07:27:40;;;;;;;5.90;3.20;;;;;;;24.84;100.00;98726.75;105909;1256;73737;-76
2023/08/02 07:30:08;;;;;;;3.90;3.60;;;;;;;24.88;100.00;98727.64;106042;1251;69611;-76
2023/08/02 07:32:35;;;;;;;3.90;3.30;;;;;;;24.94;100.00;98727.86;105937;1250;72663;-75
2023/08/02 07:35:02;;;;;;;4.40;3.00;;;;;;;25.04;100.00;98729.70;105869;1251;60549;-75
2023/08/02 07:37:29;;;;;;;3.70;3.40;;;;;;;25.13;100.00;98730.66;105913;1251;61057;-75
2023/08/02 07:39:56;;;;;;;3.60;3.40;;;;;;;25.22;100.00;98724.81;105922;1254;60533;-75
2023/08/02 07:42:22;;;;;;;6.60;3.60;;;;;;;25.31;100.00;98728.45;105766;1250;71182;-75
2023/08/02 07:45:08;;;;;;;5.50;3.20;;;;;;;25.40;100.00;98726.20;105924;1256;60556;-76
2023/08/02 07:47:36;;;;;;;3.10;3.00;;;;;;;25.48;100.00;98714.69;105727;1251;60462;-76
2023/08/02 07:50:04;;;;;;;3.40;3.10;;;;;;;25.53;100.00;98709.84;106001;1250;60476;-76
2023/08/02 07:52:31;;;;;;;5.30;3.60;;;;;;;25.55;100.00;98708.56;106012;1250;73815;-76
2023/08/02 07:54:58;;;;;;;6.50;3.40;;;;;;;25.54;100.00;98712.91;105961;1257;70993;-75
2023/08/02 07:57:26;;;;;;;5.40;3.60;;;;;;;25.59;100.00;98715.86;105954;1256;72471;-75
2023/08/02 07:59:53;;;;;;;5.90;3.20;;;;;;;25.65;100.00;98716.80;105893;1256;60428;-75
2023/08/02 08:02:20;;;;;;;3.50;3.20;;;;;;;25.73;100.00;98718.41;105930;1251;60470;-75
2023/08/02 08:04:47;;;;;;;5.50;2.80;;;;;;;25.80;100.00;98708.38;105910;1254;73810;-75
2023/08/02 08:07:13;;;;;;;8.20;2.70;;;;;;;25.86;100.00;98704.26;105991;1256;71158;-75
2023/08/02 08:09:40;;;;;;;8.70;3.40;;;;;;;25.92;100.00;98696.06;105930;1251;72508;-75
2023/08/02 08:12:08;;;;;;;3.40;3.10;;;;;;;25.98;100.00;98697.45;105975;1250;60559;-76
2023/08/02 08:14:34;;;;;;;5.10;4.00;;;;;;;26.03;100.00;98698.42;106014;1257;60556;-75
2023/08/02 08:17:01;;;;;;;5.20;3.80;;;;;;;26.08;100.00;98696.83;105945;1250;72314;-75
2023/08/02 08:19:28;;;;;;;3.40;3.20;;;;;;;26.12;100.00;98691.35;105949;1250;70864;-76
2023/08/02 08:21:55;;;;;;;3.60;3.10;;;;;;;26.14;100.00;98688.55;105896;1250;72748;-74
2023/08/02 08:24:22;;;;;;;4.90;2.90;;;;;;;26.15;100.00;98684.47;105875;1256;60384;-75
2023/08/02 08:26:50;;;;;;;6.90;2.70;;;;;;;26.17;100.00;98684.30;105934;1250;60547;-74
2023/08/02 08:29:17;;;;;;;3.80;3.30;;;;;;;26.19;100.00;98687.08;106071;1255;73820;-77
2023/08/02 08:31:43;;;;;;;3.50;2.90;;;;;;;26.14;100.00;98683.20;105889;1255;70388;-76
2023/08/02 08:34:13;;;;;;;4.90;2.90;;;;;;;26.09;100.00;98680.15;105986;1250;72663;-76
2023/08/02 08:36:40;;;;;;;6.90;3.10;;;;;;;26.12;100.00;98686.98;105905;1250;60582;-74
2023/08/02 08:39:07;;;;;;;3.60;2.60;;;;;;;26.17;100.00;98677.05;105847;1251;60470;-75
2023/08/02 08:41:33;;;;;;;3.20;2.80;;;;;;;26.24;100.00;98680.39;105936;1254;73878;-75
2023/08/02 08:44:01;;;;;;;2.70;2.50;;;;;;;26.30;100.00;98671.52;105722;1251;70965;-75
2023/08/02 08:46:31;;;;;;;4.00;2.90;;;;;;;26.36;100.00;98668.69;105872;1250;71420;-76
2023/08/02 08:48:59;;;;;;;10.10;2.70;;;;;;;26.42;100.00;98667.65;105930;1250;60492;-74
2023/08/02 08:51:27;;;;;;;5.40;2.40;;;;;;;26.47;100.00;98666.17;105965;1250;60539;-76
2023/08/02 08:53:54;;;;;;;2.50;2.20;;;;;;;26.49;100.00;98669.64;105829;1250;73643;-75
2023/08/02 08:56:23;;;;;;;7.00;3.10;;;;;;;26.48;100.00;98654.67;105922;1254;69545;-75
2023/08/02 08:58:55;;;;;;;2.80;2.30;;;;;;;26.46;100.00;98651.30;105963;1254;72418;-75
2023/08/02 09:01:22;;;;;;;2.40;2.20;;;;;;;26.47;100.00;98651.70;105935;1251;60511;-75
2023/08/02 09:03:49;;;;;;;3.00;2.00;;;;;;;26.52;100.00;98648.44;105859;1256;60531;-75
2023/08/02 09:06:16;;;;;;;11.10;2.40;;;;;;;26.58;100.00;98648.47;105793;1256;73883;-75
2023/08/02 09:08:44;;;;;;;3.60;2.00;;;;;;;26.65;100.00;98644.69;105957;1255;70778;-76
2023/08/02 09:11:11;;;;;;;6.60;2.10;;;;;;;26.73;100.00;98639.44;105936;1254;71514;-75
2023/08/02 09:13:38;;;;;;;7.30;2.30;;;;;;;26.82;100.00;98638.98;105882;1256;60539;-75
2023/08/02 09:16:09;;;;;;;3.70;2.00;;;;;;;26.90;100.00;98639.98;105958;1251;60785;-75
2023/08/02 09:18:39;;;;;;;3.50;1.90;;;;;;;26.96;100.00;98638.92;105984;1256;73646;-76
2023/08/02 09:21:07;;;;;;;4.80;1.80;;;;;;;26.97;100.00;98636.09;106093;1250;70892;-75
2023/08/02 09:23:34;;;;;;;8.40;2.40;;;;;;;26.92;100.00;98632.87;106139;1250;72677;-76
2023/08/02 09:26:17;;;;;;;1.80;1.70;;;;;;;26.90;100.00;98632.29;105926;1250;60510;-75
2023/08/02 09:29:01;;;;;;;4.80;1.90;;;;;;;26.88;100.00;98629.80;105973;1251;60453;-75
2023/08/02 09:31:29;;;;;;;2.90;2.10;;;;;;;26.87;100.00;98626.30;106002;1250;73879;-75
2023/08/02 09:33:56;;;;;;;4.30;1.80;;;;;;;26.87;100.00;98624.35;106021;1250;68963;-75
2023/08/02 09:36:29;;;;;;;2.20;1.90;;;;;;;26.89;100.00;98622.13;105984;1251;72458;-76
2023/08/02 09:39:06;;;;;;;1.90;1.80;;;;;;;26.94;100.00;98620.95;105999;1256;60473;-75
2023/08/02 09:41:33;;;;;;;2.40;2.10;;;;;;;27.04;100.00;98618.88;105979;1252;60632;-77
2023/08/02 09:44:03;;;;;;;2.00;1.90;;;;;;;27.13;100.00;98615.02;106006;1250;74413;-76
2023/08/02 09:46:34;;;;;;;5.20;1.80;;;;;;;27.17;100.00;98612.40;105954;1255;69883;-75
2023/08/02 09:49:03;;;;;;;4.40;1.80;;;;;;;27.24;100.00;98614.20;105973;1254;72841;-75
2023/08/02 09:51:40;;;;;;;1.80;1.70;;;;;;;27.36;100.00;98609.52;105758;1251;60842;-75
2023/08/02 09:54:08;;;;;;;2.00;1.90;;;;;;;27.51;100.00;98608.25;105977;1256;60546;-75
2023/08/02 09:56:35;;;;;;;2.10;1.90;;;;;;;27.59;100.00;98603.97;105929;1254;74172;-75
2023/08/02 09:59:03;;;;;;;1.90;1.70;;;;;;;27.66;100.00;98600.82;105996;1251;62429;-74
2023/08/02 10:01:31;;;;;;;8.20;2.10;;;;;;;27.74;100.00;98602.89;105963;1254;72762;-75
2023/08/02 10:03:59;;;;;;;2.10;1.90;;;;;;;27.80;100.00;98598.23;105824;1256;60546;-75
2023/08/02 10:06:29;;;;;;;2.00;1.70;;;;;;;27.83;100.00;98601.60;105960;1254;60480;-75
2023/08/02 10:08:59;;;;;;;4.80;1.70;;;;;;;27.84;100.00;98597.75;106023;1254;73843;-75
2023/08/02 10:11:26;;;;;;;2.30;1.80;;;;;;;27.85;100.00;98591.89;105967;1250;62509;-74
2023/08/02 10:13:53;;;;;;;3.80;2.40;;;;;;;27.88;100.00;98587.58;105943;1250;72502;-76
2023/08/02 10:16:21;;;;;;;9.50;2.20;;;;;;;27.94;100.00;98586.23;106003;1251;60472;-76
2023/08/02 10:18:47;;;;;;;2.60;2.00;;;;;;;28.05;100.00;98586.16;106088;1251;60441;-77
2023/08/02 10:21:15;;;;;;;1.90;1.70;;;;;;;28.13;100.00;98579.61;105903;1251;63752;-75
2023/08/02 10:23:42;;;;;;;5.20;1.90;;;;;;;28.16;100.00;98576.48;105980;1256;62408;-75
2023/08/02 10:26:09;;;;;;;2.30;2.10;;;;;;;28.19;100.00;98575.98;105658;1251;63695;-74
2023/08/02 10:28:35;;;;;;;3.60;2.00;;;;;;;28.24;100.00;98581.16;105891;1250;60555;-75
2023/08/02 10:31:07;;;;;;;5.00;2.00;;;;;;;28.27;100.00;98571.61;105922;1251;60437;-76
2023/08/02 10:33:34;;;;;;;7.70;1.90;;;;;;;28.26;100.00;98568.61;105959;1250;65077;-75
2023/08/02 10:36:02;;;;;;;2.10;1.70;;;;;;;28.29;100.00;98565.36;105931;1250;62380;-75
2023/08/02 10:38:38;;;;;;;2.00;1.80;;;;;;;28.31;100.00;98560.45;106004;1251;62557;-75
2023/08/02 10:41:07;;;;;;;1.80;1.70;;;;;;;28.30;100.00;98550.33;105955;1254;60486;-75
2023/08/02 10:43:53;;;;;;;2.10;1.70;;;;;;;28.27;100.00;98547.94;106032;1250;60460;-75
2023/08/02 10:46:22;;;;;;;11.30;2.10;;;;;;;28.31;100.00;98543.24;105995;1255;65169;-75
2023/08/02 10:48:49;;;;;;;6.30;2.00;;;;;;;28.36;100.00;98548.75;106068;1250;62713;-75
2023/08/02 10:51:30;;;;;;;4.00;1.90;;;;;;;28.38;100.00;98541.48;105969;1256;64109;-75
2023/08/02 10:54:19;;;;;;;3.80;1.60;;;;;;;28.43;100.00;98537.80;105931;1256;60402;-74
2023/08/02 10:56:53;;;;;;;2.90;1.60;;;;;;;28.51;100.00;98534.84;105948;1251;60553;-75
2023/08/02 10:59:23;;;;;;;2.70;2.10;;;;;;;28.57;100.00;98523.34;105985;1254;65122;-75
2023/08/02 11:02:07;;;;;;;1.70;1.60;;;;;;;28.55;100.00;98515.77;106038;1255;63671;-75
2023/08/02 11:04:37;;;;;;;2.90;1.70;;;;;;;28.55;100.00;98508.54;105914;1251;63800;-75
2023/08/02 11:07:12;;;;;;;1.70;1.60;;;;;;;28.55;100.00;98505.13;106310;1257;61342;-75
2023/08/02 11:09:39;;;;;;;5.40;1.80;;;;;;;28.51;100.00;98504.12;106025;1250;60468;-75
2023/08/02 11:12:09;;;;;;;4.40;1.50;;;;;;;28.45;100.00;98506.05;106027;1256;65149;-76
2023/08/02 11:14:38;;;;;;;4.20;2.00;;;;;;;28.38;100.00;98504.69;105668;1250;467813;-75
2023/08/02 11:17:05;;;;;;;6.10;1.70;;;;;;;28.33;100.00;98503.73;106077;1256;63872;-75
2023/08/02 11:19:44;;;;;;;1.90;1.70;;;;;;;28.33;100.00;98506.10;105932;1255;60536;-75